Time;durP1;ratioP1;P1;durP2;ratioP2;P2;SDS_P1;SDS_P2;PMS_P1;PMS_P2;Temp;Humidity;BMP_temperature;BMP_pressure;BME280_temperature;BME280_humidity;BME280_pressure;Samples;Min_cycle;Max_cycle;Signal;HPM_P1;HPM_P2
2023/07/25 00:00:24;;;;;;;7.03;2.25;;;14.90;99.90;;;;;;6272255;22;20023;-73
2023/07/25 00:02:50;;;;;;;7.07;2.55;;;14.80;99.90;;;;;;6271983;22;20055;-73
2023/07/25 00:05:16;;;;;;;7.85;2.63;;;14.80;99.90;;;;;;6271396;22;20016;-73
2023/07/25 00:07:41;;;;;;;7.03;2.30;;;14.80;99.90;;;;;;6272219;22;20026;-73
2023/07/25 00:10:07;;;;;;;8.43;2.55;;;14.70;99.90;;;;;;6272456;22;20061;-73
2023/07/25 00:12:35;;;;;;;6.88;2.65;;;14.70;99.90;;;;;;6272216;22;20020;-73
2023/07/25 00:15:02;;;;;;;4.32;2.30;;;14.70;99.90;;;;;;6244993;22;20020;-73
2023/07/25 00:17:28;;;;;;;8.38;2.28;;;14.70;99.90;;;;;;6272083;22;20087;-73
2023/07/25 00:19:53;;;;;;;7.93;2.72;;;14.70;99.90;;;;;;6266541;22;20120;-73
2023/07/25 00:22:19;;;;;;;8.63;2.80;;;14.70;99.90;;;;;;6272230;22;20019;-73
2023/07/25 00:24:45;;;;;;;6.38;2.40;;;14.60;99.90;;;;;;6268924;22;20023;-73
2023/07/25 00:27:10;;;;;;;9.27;2.45;;;14.60;99.90;;;;;;6271246;22;20051;-73
2023/07/25 00:29:36;;;;;;;14.57;2.80;;;14.60;99.90;;;;;;6269446;22;20034;-73
2023/07/25 00:32:02;;;;;;;7.43;2.78;;;14.60;99.90;;;;;;6269876;22;20051;-73
2023/07/25 00:34:28;;;;;;;7.35;2.63;;;14.70;99.90;;;;;;6269518;22;20090;-73
2023/07/25 00:36:54;;;;;;;10.10;3.05;;;14.60;99.90;;;;;;6269735;22;20054;-74
2023/07/25 00:39:19;;;;;;;4.90;2.78;;;14.60;99.90;;;;;;6273373;22;20102;-73
2023/07/25 00:41:45;;;;;;;6.35;2.85;;;14.60;99.90;;;;;;6272351;22;20035;-73
2023/07/25 00:44:11;;;;;;;5.35;2.30;;;14.60;99.90;;;;;;6273900;22;20026;-73
2023/07/25 00:46:37;;;;;;;7.45;2.55;;;14.60;99.90;;;;;;6271854;22;20333;-73
2023/07/25 00:49:04;;;;;;;8.27;2.88;;;14.60;99.90;;;;;;6274052;22;20020;-73
2023/07/25 00:51:31;;;;;;;7.10;2.60;;;14.60;99.90;;;;;;6272102;22;20081;-73
2023/07/25 00:53:57;;;;;;;12.50;2.83;;;14.60;99.90;;;;;;6273808;22;20071;-74
2023/07/25 00:56:23;;;;;;;8.00;2.67;;;14.50;99.90;;;;;;6273682;22;20023;-73
2023/07/25 00:58:49;;;;;;;8.80;2.78;;;14.50;99.90;;;;;;6274195;22;20027;-73
2023/07/25 01:01:15;;;;;;;7.38;2.58;;;14.50;99.90;;;;;;6273127;22;20657;-73
2023/07/25 01:03:41;;;;;;;7.30;3.10;;;14.50;99.90;;;;;;6273974;22;20015;-73
2023/07/25 01:06:14;;;;;;;7.43;2.65;;;14.40;99.90;;;;;;6273300;22;20022;-73
2023/07/25 01:08:54;;;;;;;6.70;2.45;;;14.30;99.90;;;;;;6272046;22;20459;-73
2023/07/25 01:11:21;;;;;;;8.32;2.80;;;14.30;99.90;;;;;;6274191;22;20020;-73
2023/07/25 01:13:47;;;;;;;9.38;2.60;;;14.30;99.90;;;;;;6272114;22;20356;-73
2023/07/25 01:16:17;;;;;;;7.80;2.85;;;14.30;99.90;;;;;;6273924;22;20020;-73
2023/07/25 01:18:44;;;;;;;5.70;3.78;;;14.20;99.90;;;;;;6272033;22;20028;-73
2023/07/25 01:21:13;;;;;;;7.18;2.50;;;14.20;99.90;;;;;;6272038;22;20436;-73
2023/07/25 01:23:40;;;;;;;7.28;3.15;;;14.20;99.90;;;;;;6273949;22;20115;-73
2023/07/25 01:26:06;;;;;;;9.25;2.50;;;14.20;99.90;;;;;;6273271;22;20022;-73
2023/07/25 01:28:32;;;;;;;9.52;2.95;;;14.10;99.90;;;;;;6273640;22;20051;-73
2023/07/25 01:30:58;;;;;;;5.85;2.95;;;14.10;99.90;;;;;;6271397;22;20759;-73
2023/07/25 01:33:23;;;;;;;7.00;2.95;;;14.20;99.90;;;;;;6273698;22;20158;-73
2023/07/25 01:35:49;;;;;;;6.10;3.35;;;14.20;99.90;;;;;;6271402;22;20077;-73
2023/07/25 01:38:15;;;;;;;6.00;2.90;;;14.10;99.90;;;;;;6273705;22;20404;-73
2023/07/25 01:40:41;;;;;;;8.57;3.05;;;14.10;99.90;;;;;;6271460;22;20027;-73
2023/07/25 01:43:08;;;;;;;6.32;3.00;;;14.10;99.90;;;;;;6273505;22;20018;-73
2023/07/25 01:45:34;;;;;;;7.63;2.78;;;14.10;99.90;;;;;;6271272;22;20609;-73
2023/07/25 01:47:59;;;;;;;8.63;2.88;;;14.00;99.90;;;;;;6273259;22;20020;-73
2023/07/25 01:50:26;;;;;;;5.63;3.05;;;14.00;99.90;;;;;;6272676;22;20668;-73
2023/07/25 01:52:52;;;;;;;8.40;3.13;;;14.00;99.90;;;;;;6272966;22;20404;-73
2023/07/25 01:55:18;;;;;;;11.68;3.53;;;14.00;99.90;;;;;;6271328;22;20150;-73
2023/07/25 01:57:43;;;;;;;5.95;2.70;;;14.00;99.90;;;;;;6273107;22;20019;-73
2023/07/25 02:00:10;;;;;;;6.88;3.03;;;14.00;99.90;;;;;;6273050;22;20011;-73
2023/07/25 02:02:35;;;;;;;7.93;2.63;;;14.00;99.90;;;;;;6271364;22;20390;-73
2023/07/25 02:05:01;;;;;;;6.68;2.92;;;14.00;99.90;;;;;;6272481;22;20097;-73
2023/07/25 02:07:27;;;;;;;5.40;3.42;;;14.00;99.90;;;;;;6272745;22;20034;-73
2023/07/25 02:09:53;;;;;;;5.45;2.83;;;14.00;99.90;;;;;;6273465;22;20027;-73
2023/07/25 02:12:18;;;;;;;9.23;3.00;;;14.00;99.90;;;;;;6271030;22;20108;-73
2023/07/25 02:14:44;;;;;;;11.75;2.58;;;14.00;99.90;;;;;;6270808;22;20019;-73
2023/07/25 02:17:10;;;;;;;5.70;3.10;;;14.00;99.90;;;;;;6270901;22;20104;-72
2023/07/25 02:19:35;;;;;;;7.55;3.20;;;14.00;99.90;;;;;;6270669;22;20023;-72
2023/07/25 02:22:01;;;;;;;9.85;3.58;;;14.00;99.90;;;;;;6272963;22;20023;-73
2023/07/25 02:24:27;;;;;;;10.38;3.03;;;14.00;99.90;;;;;;6272765;22;20035;-73
2023/07/25 02:26:53;;;;;;;6.78;2.75;;;14.00;99.90;;;;;;6270866;22;20030;-73
2023/07/25 02:29:18;;;;;;;7.28;3.20;;;14.00;99.90;;;;;;6272369;22;20050;-73
2023/07/25 02:31:44;;;;;;;9.05;2.88;;;13.90;99.90;;;;;;6270897;22;20020;-73
2023/07/25 02:34:10;;;;;;;11.98;3.28;;;14.00;99.90;;;;;;6270780;22;20016;-73
2023/07/25 02:36:35;;;;;;;6.43;3.33;;;14.00;99.90;;;;;;6273040;22;20439;-73
2023/07/25 02:39:01;;;;;;;10.60;4.25;;;14.00;99.90;;;;;;6270980;22;20027;-73
2023/07/25 02:41:27;;;;;;;15.82;2.90;;;14.00;99.90;;;;;;6272317;22;20158;-73
2023/07/25 02:43:52;;;;;;;4.38;2.80;;;14.00;99.90;;;;;;6272887;22;20020;-73
2023/07/25 02:46:18;;;;;;;8.90;3.10;;;14.00;99.90;;;;;;6271045;22;20023;-73
2023/07/25 02:48:44;;;;;;;8.30;2.75;;;14.00;99.90;;;;;;6271048;22;20020;-72
2023/07/25 02:51:09;;;;;;;10.48;3.47;;;14.00;99.90;;;;;;6271231;22;20379;-73
2023/07/25 02:53:35;;;;;;;8.65;2.83;;;14.00;99.90;;;;;;6272613;22;20027;-73
2023/07/25 02:56:00;;;;;;;6.72;2.92;;;14.00;99.90;;;;;;6272569;22;20020;-73
2023/07/25 02:58:26;;;;;;;5.97;2.90;;;14.00;99.90;;;;;;6272913;22;20477;-73
2023/07/25 03:00:52;;;;;;;8.38;3.53;;;14.00;99.90;;;;;;6272231;22;20081;-73
2023/07/25 03:03:17;;;;;;;9.02;3.10;;;14.00;99.90;;;;;;6270704;22;20026;-73
2023/07/25 03:05:43;;;;;;;9.13;3.50;;;14.00;99.90;;;;;;6269882;22;20023;-73
2023/07/25 03:08:09;;;;;;;5.70;2.80;;;13.90;99.90;;;;;;6272339;22;20066;-73
2023/07/25 03:10:34;;;;;;;8.50;3.42;;;13.90;99.90;;;;;;6270510;22;20023;-73
2023/07/25 03:13:01;;;;;;;8.38;3.22;;;13.90;99.90;;;;;;6272231;22;20456;-73
2023/07/25 03:15:27;;;;;;;8.10;2.72;;;14.00;99.90;;;;;;6272622;22;20043;-73
2023/07/25 03:17:54;;;;;;;12.27;3.70;;;14.00;99.90;;;;;;6271923;22;20455;-73
2023/07/25 03:20:19;;;;;;;10.10;2.63;;;14.00;99.90;;;;;;6272563;22;20019;-73
2023/07/25 03:22:45;;;;;;;8.77;2.80;;;14.00;99.90;;;;;;6244806;22;20427;-73
2023/07/25 03:25:11;;;;;;;9.32;3.15;;;14.00;99.90;;;;;;6244185;22;20019;-73
2023/07/25 03:27:37;;;;;;;7.60;3.07;;;14.00;99.90;;;;;;6244535;22;20020;-73
2023/07/25 03:30:04;;;;;;;9.43;2.75;;;14.00;99.90;;;;;;6272288;22;20023;-73
2023/07/25 03:32:29;;;;;;;12.18;3.30;;;14.00;99.90;;;;;;6244652;22;20043;-73
2023/07/25 03:34:56;;;;;;;4.90;2.22;;;14.00;99.90;;;;;;6272000;22;20340;-74
2023/07/25 03:37:21;;;;;;;6.47;2.72;;;14.00;99.90;;;;;;6272124;22;20023;-73
2023/07/25 03:39:47;;;;;;;6.05;2.67;;;14.00;99.90;;;;;;6244479;22;20032;-74
2023/07/25 03:42:13;;;;;;;6.30;3.00;;;14.00;99.90;;;;;;6272213;22;20029;-73
2023/07/25 03:44:38;;;;;;;7.78;2.85;;;14.00;99.90;;;;;;6271534;22;20035;-73
2023/07/25 03:47:04;;;;;;;5.10;2.55;;;13.90;99.90;;;;;;6271867;22;20070;-73
2023/07/25 03:49:30;;;;;;;10.02;2.92;;;14.00;99.90;;;;;;6271786;22;20398;-73
2023/07/25 03:51:56;;;;;;;8.68;2.67;;;13.90;99.90;;;;;;6271877;22;20019;-73
2023/07/25 03:54:23;;;;;;;5.90;2.55;;;13.90;99.90;;;;;;6244164;22;20027;-73
2023/07/25 03:56:50;;;;;;;9.43;2.40;;;13.90;99.90;;;;;;6271991;22;20379;-73
2023/07/25 03:59:19;;;;;;;9.50;2.95;;;13.90;99.90;;;;;;6244618;22;20095;-73
2023/07/25 04:01:45;;;;;;;4.22;2.72;;;13.90;99.90;;;;;;6244341;22;20031;-73
2023/07/25 04:04:11;;;;;;;7.82;3.13;;;13.90;99.90;;;;;;6271655;22;20051;-73
2023/07/25 04:06:40;;;;;;;9.13;2.70;;;13.90;99.90;;;;;;6243644;22;20026;-73
2023/07/25 04:09:05;;;;;;;9.00;2.70;;;13.90;99.90;;;;;;6271364;22;20038;-73
2023/07/25 04:11:31;;;;;;;5.32;2.95;;;13.90;99.90;;;;;;6271704;22;20016;-73
2023/07/25 04:13:57;;;;;;;3.92;2.38;;;13.90;99.90;;;;;;6219451;22;20019;-73
2023/07/25 04:16:23;;;;;;;5.03;2.70;;;14.00;99.90;;;;;;6271855;22;20089;-73
2023/07/25 04:18:49;;;;;;;6.80;2.90;;;14.00;99.90;;;;;;6253050;22;20088;-73
2023/07/25 04:21:15;;;;;;;8.50;2.75;;;14.00;99.90;;;;;;6271522;22;20031;-73
2023/07/25 04:23:42;;;;;;;9.68;3.05;;;14.00;99.90;;;;;;6271983;22;20020;-73
2023/07/25 04:26:08;;;;;;;7.97;2.83;;;14.00;99.90;;;;;;6271751;22;20020;-73
2023/07/25 04:28:34;;;;;;;8.15;2.88;;;14.10;99.90;;;;;;6271546;22;20336;-73
2023/07/25 04:30:59;;;;;;;10.75;2.92;;;14.10;99.90;;;;;;6271451;22;20090;-73
2023/07/25 04:33:25;;;;;;;7.63;2.70;;;14.10;99.90;;;;;;6271413;22;20028;-72
2023/07/25 04:35:51;;;;;;;6.82;2.60;;;14.10;99.90;;;;;;6269708;22;20452;-73
2023/07/25 04:38:16;;;;;;;7.78;2.70;;;14.10;99.90;;;;;;6271401;22;20027;-73
2023/07/25 04:40:43;;;;;;;8.40;2.95;;;14.20;99.90;;;;;;6271512;22;20066;-73
2023/07/25 04:43:09;;;;;;;5.78;2.55;;;14.20;99.90;;;;;;6271735;22;20016;-72
2023/07/25 04:45:35;;;;;;;8.27;3.10;;;14.20;99.90;;;;;;6271391;22;20085;-72
2023/07/25 04:48:00;;;;;;;6.18;2.40;;;14.20;99.90;;;;;;6271143;22;20348;-72
2023/07/25 04:50:26;;;;;;;8.27;2.63;;;14.20;99.90;;;;;;6271547;22;20023;-72
2023/07/25 04:52:52;;;;;;;13.60;3.22;;;14.20;99.90;;;;;;6269492;22;20031;-72
2023/07/25 04:55:17;;;;;;;6.07;2.42;;;14.30;99.90;;;;;;6271423;22;20023;-72
2023/07/25 04:57:43;;;;;;;5.43;3.03;;;14.30;99.90;;;;;;6271353;22;20020;-72
2023/07/25 05:00:09;;;;;;;5.60;2.63;;;14.40;99.90;;;;;;6269521;22;20067;-72
2023/07/25 05:02:35;;;;;;;7.32;2.40;;;14.40;99.90;;;;;;6271510;22;20016;-72
2023/07/25 05:05:01;;;;;;;8.98;3.33;;;14.40;99.90;;;;;;6271066;22;20020;-72
2023/07/25 05:07:27;;;;;;;6.43;2.33;;;14.40;99.90;;;;;;6268729;22;20024;-72
2023/07/25 05:09:53;;;;;;;6.50;2.65;;;14.50;99.90;;;;;;6271338;22;20347;-72
2023/07/25 05:12:18;;;;;;;8.48;2.58;;;14.50;99.90;;;;;;6271511;22;20038;-72
2023/07/25 05:14:44;;;;;;;6.47;2.45;;;14.60;99.90;;;;;;6270886;22;20518;-72
2023/07/25 05:17:10;;;;;;;7.07;1.95;;;14.60;99.90;;;;;;6271421;22;20090;-72
2023/07/25 05:19:36;;;;;;;9.02;2.63;;;14.60;99.90;;;;;;6269162;22;20027;-72
2023/07/25 05:22:01;;;;;;;4.90;2.40;;;14.70;99.90;;;;;;6270676;22;20163;-72
2023/07/25 05:24:27;;;;;;;3.65;2.30;;;14.70;99.90;;;;;;6271916;22;20094;-72
2023/07/25 05:26:53;;;;;;;15.30;3.60;;;14.70;99.90;;;;;;6273033;22;20074;-72
2023/07/25 05:29:18;;;;;;;9.55;2.42;;;14.70;99.90;;;;;;6271285;22;20023;-72
2023/07/25 05:31:44;;;;;;;13.68;2.63;;;14.70;99.90;;;;;;6271311;22;20049;-72
2023/07/25 05:34:10;;;;;;;11.57;2.88;;;14.80;99.90;;;;;;6271310;22;20030;-72
2023/07/25 05:36:36;;;;;;;14.35;3.38;;;14.90;99.90;;;;;;6270805;22;20052;-72
2023/07/25 05:39:02;;;;;;;6.63;2.80;;;14.90;99.90;;;;;;6271219;22;20027;-72
2023/07/25 05:41:27;;;;;;;9.68;2.60;;;15.00;99.90;;;;;;6272989;22;20339;-73
2023/07/25 05:43:53;;;;;;;8.00;2.25;;;15.00;99.90;;;;;;6274804;22;20054;-72
2023/07/25 05:46:19;;;;;;;6.60;2.10;;;15.10;99.90;;;;;;6273902;22;20344;-73
2023/07/25 05:48:44;;;;;;;8.98;3.30;;;15.20;99.90;;;;;;6275395;22;20023;-73
2023/07/25 05:51:10;;;;;;;8.13;2.30;;;15.40;99.90;;;;;;6273015;22;20445;-72
2023/07/25 05:53:36;;;;;;;8.35;2.35;;;15.50;99.90;;;;;;6273921;22;20455;-73
2023/07/25 05:56:02;;;;;;;8.23;3.28;;;15.60;99.90;;;;;;6273472;22;20027;-72
2023/07/25 05:58:28;;;;;;;12.75;2.13;;;15.70;99.90;;;;;;6271697;22;20016;-72
2023/07/25 06:00:54;;;;;;;7.68;2.42;;;15.70;99.90;;;;;;6273026;22;20091;-72
2023/07/25 06:03:19;;;;;;;12.13;3.35;;;15.80;99.90;;;;;;6272356;22;20055;-72
2023/07/25 06:05:45;;;;;;;5.72;1.95;;;15.90;99.90;;;;;;6272644;22;20023;-72
2023/07/25 06:08:11;;;;;;;6.72;1.73;;;16.00;99.90;;;;;;6270929;22;20071;-72
2023/07/25 06:10:38;;;;;;;10.90;1.90;;;16.00;99.90;;;;;;6270932;22;20448;-72
2023/07/25 06:13:04;;;;;;;9.88;2.08;;;16.10;99.90;;;;;;6272923;22;20066;-72
2023/07/25 06:15:33;;;;;;;5.55;1.65;;;16.20;99.90;;;;;;6272450;22;20086;-74
2023/07/25 06:18:00;;;;;;;5.55;1.85;;;16.20;99.90;;;;;;6270653;22;20075;-71
2023/07/25 06:20:26;;;;;;;9.20;3.00;;;16.30;99.90;;;;;;6245077;22;20126;-72
2023/07/25 06:22:51;;;;;;;7.53;1.90;;;16.40;99.90;;;;;;6272950;22;20062;-72
2023/07/25 06:25:17;;;;;;;7.35;2.00;;;16.40;99.90;;;;;;6272777;22;20087;-72
2023/07/25 06:27:43;;;;;;;5.50;1.75;;;16.40;99.90;;;;;;6245204;22;20026;-72
2023/07/25 06:30:09;;;;;;;7.38;2.10;;;16.40;99.90;;;;;;6272760;22;20020;-72
2023/07/25 06:32:37;;;;;;;6.78;1.80;;;16.40;99.90;;;;;;6272577;22;20106;-71
2023/07/25 06:35:04;;;;;;;7.82;1.95;;;16.40;99.90;;;;;;6272016;22;20019;-72
2023/07/25 06:37:34;;;;;;;7.05;1.65;;;16.40;99.90;;;;;;6244837;22;20321;-72
2023/07/25 06:40:00;;;;;;;7.82;1.88;;;16.50;99.90;;;;;;6272610;22;20098;-72
2023/07/25 06:42:29;;;;;;;5.47;1.55;;;16.50;99.90;;;;;;6244768;22;20360;-72
2023/07/25 06:44:58;;;;;;;7.60;1.75;;;16.60;99.90;;;;;;6272489;22;20016;-73
2023/07/25 06:47:24;;;;;;;5.20;1.67;;;16.70;99.90;;;;;;6271969;22;20015;-67
2023/07/25 06:49:50;;;;;;;7.13;1.65;;;16.80;99.90;;;;;;6272129;22;20012;-68
2023/07/25 06:52:15;;;;;;;6.18;1.55;;;16.80;99.90;;;;;;6245183;22;20020;-69
2023/07/25 06:54:43;;;;;;;9.00;1.45;;;16.80;99.90;;;;;;6272097;22;20016;-68
2023/07/25 06:57:09;;;;;;;7.10;2.20;;;16.90;99.90;;;;;;6272812;22;20058;-69
2023/07/25 06:59:34;;;;;;;6.32;1.20;;;16.90;99.90;;;;;;6272819;22;20336;-69
2023/07/25 07:02:03;;;;;;;7.18;1.38;;;16.90;99.90;;;;;;6272643;22;20023;-68
2023/07/25 07:04:28;;;;;;;7.20;1.13;;;17.00;99.90;;;;;;6272295;22;20022;-68
2023/07/25 07:06:54;;;;;;;9.55;1.80;;;17.10;99.90;;;;;;6244947;22;20402;-68
2023/07/25 07:09:20;;;;;;;6.47;1.58;;;17.10;99.90;;;;;;6271607;22;20026;-68
2023/07/25 07:11:45;;;;;;;11.38;1.92;;;17.20;99.90;;;;;;6271969;22;20058;-68
2023/07/25 07:14:11;;;;;;;6.55;1.50;;;17.20;99.90;;;;;;6272061;22;20077;-68
2023/07/25 07:16:37;;;;;;;4.20;1.20;;;17.30;99.90;;;;;;6272283;22;20058;-68
2023/07/25 07:19:03;;;;;;;5.65;1.40;;;17.40;99.90;;;;;;6271477;22;20015;-68
2023/07/25 07:21:29;;;;;;;4.72;1.20;;;17.40;99.90;;;;;;6271874;22;20479;-68
2023/07/25 07:23:55;;;;;;;5.53;1.50;;;17.40;99.90;;;;;;6272288;22;20041;-68
2023/07/25 07:26:21;;;;;;;8.20;1.63;;;17.50;99.90;;;;;;6271739;22;20078;-68
2023/07/25 07:28:46;;;;;;;5.75;1.45;;;17.50;99.90;;;;;;6272050;22;20016;-68
2023/07/25 07:31:12;;;;;;;5.38;1.25;;;17.60;99.90;;;;;;6272169;22;20027;-68
2023/07/25 07:33:39;;;;;;;6.03;1.00;;;17.50;99.90;;;;;;6271693;22;20396;-68
2023/07/25 07:36:05;;;;;;;9.15;1.25;;;17.50;99.90;;;;;;6272040;22;20018;-68
2023/07/25 07:38:31;;;;;;;4.28;1.10;;;17.50;99.90;;;;;;6272073;22;20015;-67
2023/07/25 07:40:57;;;;;;;5.07;0.90;;;17.50;99.90;;;;;;6272126;22;20317;-68
2023/07/25 07:43:23;;;;;;;5.32;1.00;;;17.60;99.90;;;;;;6244459;22;20031;-68
2023/07/25 07:45:49;;;;;;;6.32;1.00;;;17.60;99.90;;;;;;6271930;22;20016;-68
2023/07/25 07:48:15;;;;;;;5.05;1.05;;;17.60;99.90;;;;;;6271573;22;20031;-66
2023/07/25 07:50:43;;;;;;;8.35;1.83;;;17.70;99.90;;;;;;6272134;22;20107;-72
2023/07/25 07:53:09;;;;;;;4.18;1.10;;;17.70;99.90;;;;;;6271503;22;20026;-68
2023/07/25 07:55:35;;;;;;;2.95;0.77;;;17.80;99.90;;;;;;6272020;22;20336;-68
2023/07/25 07:58:00;;;;;;;1.55;0.80;;;17.80;99.90;;;;;;6270714;22;20015;-68
2023/07/25 08:00:26;;;;;;;3.83;0.80;;;17.90;99.90;;;;;;6271161;22;20085;-69
2023/07/25 08:02:52;;;;;;;5.78;0.73;;;17.90;99.90;;;;;;6271463;22;20016;-69
2023/07/25 08:05:18;;;;;;;5.35;0.98;;;18.00;99.90;;;;;;6244333;22;20023;-69
2023/07/25 08:07:44;;;;;;;3.58;0.80;;;18.00;99.90;;;;;;6271592;22;20325;-69
2023/07/25 08:10:10;;;;;;;1.70;0.90;;;18.10;99.90;;;;;;6272020;22;20027;-69
2023/07/25 08:12:36;;;;;;;4.10;0.98;;;18.00;99.90;;;;;;6271479;22;20123;-69
2023/07/25 08:15:02;;;;;;;5.75;1.05;;;18.00;99.90;;;;;;6271637;22;20074;-69
2023/07/25 08:17:28;;;;;;;2.42;0.88;;;18.20;99.90;;;;;;6271929;22;20020;-69
2023/07/25 08:19:54;;;;;;;3.60;1.17;;;18.20;99.90;;;;;;6271349;22;20416;-69
2023/07/25 08:22:20;;;;;;;2.78;0.80;;;18.20;99.90;;;;;;6272074;22;20024;-69
2023/07/25 08:24:46;;;;;;;2.85;1.30;;;18.20;99.90;;;;;;6271853;22;20026;-69
2023/07/25 08:27:12;;;;;;;4.03;0.80;;;18.40;99.90;;;;;;6272271;22;20020;-69
2023/07/25 08:29:47;;;;;;;2.25;0.82;;;18.40;99.90;;;;;;6271962;22;20505;-69
2023/07/25 08:32:14;;;;;;;3.60;0.80;;;18.40;99.90;;;;;;6271778;22;20101;-69
2023/07/25 08:34:40;;;;;;;1.73;1.17;;;18.40;99.90;;;;;;6271786;22;20015;-69
2023/07/25 08:37:06;;;;;;;4.20;0.90;;;18.40;99.90;;;;;;6272283;22;20098;-69
2023/07/25 08:39:33;;;;;;;5.45;0.80;;;18.70;99.90;;;;;;6271657;22;20054;-69
2023/07/25 08:41:59;;;;;;;6.88;0.63;;;18.60;99.90;;;;;;6271827;22;20016;-69
2023/07/25 08:44:26;;;;;;;4.53;0.77;;;18.50;99.90;;;;;;6271714;22;20051;-69
2023/07/25 08:46:55;;;;;;;3.80;0.68;;;18.60;99.90;;;;;;6271461;22;20019;-69
2023/07/25 08:49:25;;;;;;;2.72;0.77;;;18.60;99.90;;;;;;6271282;22;20099;-69
2023/07/25 08:51:54;;;;;;;4.95;0.93;;;18.70;99.90;;;;;;6272126;22;20011;-69
2023/07/25 08:54:27;;;;;;;3.72;1.15;;;18.90;99.90;;;;;;6271621;22;20024;-69
2023/07/25 08:56:54;;;;;;;4.95;1.17;;;18.90;99.90;;;;;;6271733;22;20020;-69
2023/07/25 08:59:20;;;;;;;3.80;0.90;;;18.80;99.90;;;;;;6273345;22;20020;-69
2023/07/25 09:01:46;;;;;;;7.63;1.38;;;18.80;99.90;;;;;;6246774;22;20102;-69
2023/07/25 09:04:14;;;;;;;2.15;0.93;;;18.70;99.90;;;;;;6274105;22;20027;-69
2023/07/25 09:06:40;;;;;;;5.72;0.90;;;18.90;99.90;;;;;;6246330;22;20023;-70
2023/07/25 09:09:07;;;;;;;4.55;0.82;;;19.00;99.90;;;;;;6245828;22;20403;-69
2023/07/25 09:11:35;;;;;;;4.55;0.80;;;19.10;99.90;;;;;;6272002;22;20078;-69
2023/07/25 09:14:01;;;;;;;1.98;0.60;;;19.30;99.90;;;;;;6245382;22;20078;-69
2023/07/25 09:16:27;;;;;;;8.23;1.10;;;19.40;99.90;;;;;;6273176;22;20015;-70
2023/07/25 09:18:53;;;;;;;3.55;0.70;;;19.40;99.90;;;;;;6251616;22;20114;-69
2023/07/25 09:21:19;;;;;;;2.95;0.70;;;19.40;99.90;;;;;;6273078;22;20113;-69
2023/07/25 09:23:52;;;;;;;6.05;1.02;;;19.30;99.90;;;;;;6273133;22;20015;-69
2023/07/25 09:26:21;;;;;;;3.47;1.00;;;19.20;99.90;;;;;;6272713;22;20046;-69
2023/07/25 09:28:51;;;;;;;0.95;0.88;;;19.20;99.90;;;;;;6270715;22;20028;-68
2023/07/25 09:31:19;;;;;;;5.68;0.68;;;19.20;99.90;;;;;;6272958;22;20473;-69
2023/07/25 09:33:49;;;;;;;1.55;0.70;;;19.20;99.90;;;;;;6272854;22;20608;-69
2023/07/25 09:36:15;;;;;;;5.03;1.02;;;19.40;99.90;;;;;;6273545;22;20527;-69
2023/07/25 09:38:54;;;;;;;2.67;0.73;;;19.50;99.90;;;;;;6273071;22;20492;-69
2023/07/25 09:41:22;;;;;;;2.15;0.80;;;19.60;99.90;;;;;;6272575;22;20103;-69
2023/07/25 09:43:48;;;;;;;3.63;0.95;;;19.50;99.90;;;;;;6272603;22;20018;-69
2023/07/25 09:46:14;;;;;;;2.97;0.88;;;19.40;99.90;;;;;;6272905;22;20494;-70
2023/07/25 09:48:46;;;;;;;3.15;0.82;;;19.30;99.90;;;;;;6272870;22;20012;-75
2023/07/25 09:51:12;;;;;;;;;;;19.10;99.90;;;;;;6246920;22;20573;-74
2023/07/25 09:53:41;;;;;;;2.13;0.70;;;19.00;99.90;;;;;;6271643;22;19911;-73
2023/07/25 09:56:08;;;;;;;3.90;0.68;;;19.10;99.90;;;;;;6273044;22;20047;-73
2023/07/25 09:58:34;;;;;;;2.15;1.15;;;19.10;99.90;;;;;;6272627;22;20031;-73
2023/07/25 10:01:02;;;;;;;6.38;0.82;;;19.20;99.90;;;;;;6273336;22;20007;-74
2023/07/25 10:03:29;;;;;;;3.17;0.73;;;19.40;99.90;;;;;;6273311;22;20012;-73
2023/07/25 10:05:56;;;;;;;2.97;0.70;;;19.40;99.90;;;;;;6271532;22;20023;-73
2023/07/25 10:08:24;;;;;;;1.92;0.60;;;19.70;99.90;;;;;;6272525;22;20019;-73
2023/07/25 10:10:51;;;;;;;3.97;0.73;;;19.80;99.90;;;;;;6270569;22;20023;-73
2023/07/25 10:13:16;;;;;;;7.22;0.80;;;19.80;99.90;;;;;;6272920;22;20019;-73
2023/07/25 10:15:42;;;;;;;4.35;0.90;;;19.90;99.90;;;;;;6270933;22;20067;-73
2023/07/25 10:18:35;;;;;;;2.00;0.75;;;19.70;99.90;;;;;;6272556;22;20019;-73
2023/07/25 10:21:01;;;;;;;1.48;0.70;;;19.80;99.90;;;;;;6265945;22;20132;-74
2023/07/25 10:23:31;;;;;;;2.97;0.57;;;19.80;99.90;;;;;;6245210;22;20019;-74
2023/07/25 10:26:10;;;;;;;4.82;0.70;;;19.90;99.90;;;;;;6272298;22;20343;-73
2023/07/25 10:28:36;;;;;;;5.65;0.93;;;19.70;99.90;;;;;;6245259;22;20023;-73
2023/07/25 10:31:08;;;;;;;4.93;0.80;;;19.60;99.90;;;;;;6220285;22;20362;-74
2023/07/25 10:33:42;;;;;;;3.70;0.80;;;19.90;99.90;;;;;;6272737;22;20020;-73
2023/07/25 10:36:23;;;;;;;3.38;0.90;;;19.70;99.90;;;;;;6272792;22;20011;-73
2023/07/25 10:38:49;;;;;;;2.38;0.52;;;19.80;99.90;;;;;;6272496;22;20106;-73
2023/07/25 10:41:16;;;;;;;4.47;0.80;;;19.70;99.90;;;;;;6272515;22;20018;-73
2023/07/25 10:43:48;;;;;;;1.27;0.70;;;19.90;99.90;;;;;;6219950;22;20027;-73
2023/07/25 10:46:18;;;;;;;3.72;0.77;;;20.00;99.90;;;;;;6245559;22;20024;-73
2023/07/25 10:48:53;;;;;;;3.30;0.60;;;20.00;99.90;;;;;;6245461;22;20028;-73
2023/07/25 10:51:21;;;;;;;3.08;0.80;;;20.00;99.90;;;;;;6272663;22;20043;-74
2023/07/25 10:54:09;;;;;;;4.40;0.80;;;19.90;99.90;;;;;;6245449;22;20020;-73
2023/07/25 10:56:37;;;;;;;3.42;0.85;;;20.10;99.90;;;;;;6272389;22;20039;-74
2023/07/25 10:59:04;;;;;;;2.03;0.60;;;20.10;99.90;;;;;;6272228;22;20447;-74
2023/07/25 11:01:34;;;;;;;2.25;0.65;;;20.40;99.90;;;;;;6272173;22;20078;-73
2023/07/25 11:04:19;;;;;;;2.47;0.52;;;20.40;99.90;;;;;;6272519;22;20683;-74
2023/07/25 11:06:45;;;;;;;0.73;0.47;;;20.40;99.90;;;;;;6272240;22;20007;-74
2023/07/25 11:09:11;;;;;;;7.75;0.80;;;20.20;99.90;;;;;;6271987;22;20070;-74
2023/07/25 11:11:45;;;;;;;2.83;0.93;;;20.30;99.90;;;;;;6244757;22;20020;-73
2023/07/25 11:14:17;;;;;;;0.95;0.70;;;20.20;99.90;;;;;;6219250;22;20095;-73
2023/07/25 11:16:44;;;;;;;2.28;0.80;;;20.10;99.90;;;;;;6272125;22;20020;-74
2023/07/25 11:19:11;;;;;;;2.70;0.82;;;20.20;99.90;;;;;;6271647;22;20051;-74
2023/07/25 11:21:44;;;;;;;4.10;0.77;;;20.20;99.90;;;;;;6271884;22;20051;-74
2023/07/25 11:24:11;;;;;;;3.92;0.82;;;20.20;99.90;;;;;;6244508;22;20069;-74
2023/07/25 11:26:38;;;;;;;6.03;0.95;;;20.40;99.90;;;;;;6244537;22;20031;-74
2023/07/25 11:29:06;;;;;;;3.65;0.82;;;20.40;99.90;;;;;;6271781;22;20015;-74
2023/07/25 11:31:32;;;;;;;2.45;0.85;;;20.40;99.90;;;;;;6272172;22;20022;-74
2023/07/25 11:34:07;;;;;;;3.05;0.80;;;20.60;99.90;;;;;;6271900;22;20047;-74
2023/07/25 11:36:36;;;;;;;5.32;1.20;;;20.60;99.90;;;;;;6271922;22;20443;-73
2023/07/25 11:39:02;;;;;;;1.52;0.50;;;20.60;99.90;;;;;;6271677;22;20020;-71
2023/07/25 11:41:28;;;;;;;3.90;0.70;;;20.70;99.90;;;;;;6244232;22;20505;-69
2023/07/25 11:43:54;;;;;;;7.93;1.00;;;20.80;99.90;;;;;;6271573;22;20016;-69
2023/07/25 11:46:20;;;;;;;5.07;0.80;;;21.00;99.90;;;;;;6244249;22;20023;-69
2023/07/25 11:48:46;;;;;;;2.35;0.80;;;20.80;99.90;;;;;;6244283;22;20580;-69
2023/07/25 11:51:12;;;;;;;0.95;0.70;;;20.80;99.90;;;;;;6271868;22;20023;-69
2023/07/25 11:53:38;;;;;;;3.20;0.95;;;20.90;99.90;;;;;;6271550;22;20099;-69
2023/07/25 11:56:04;;;;;;;4.43;1.00;;;20.70;99.90;;;;;;6272022;22;20514;-69
2023/07/25 11:58:29;;;;;;;2.08;0.90;;;20.80;99.90;;;;;;6271847;22;20011;-68
2023/07/25 12:00:56;;;;;;;4.32;0.70;;;20.80;99.90;;;;;;6271349;22;20459;-69
2023/07/25 12:03:24;;;;;;;3.78;0.70;;;20.70;99.90;;;;;;6271760;22;20019;-69
2023/07/25 12:06:00;;;;;;;2.05;0.68;;;20.80;99.90;;;;;;6271738;22;20020;-69
2023/07/25 12:08:55;;;;;;;1.10;0.52;;;20.70;99.90;;;;;;6271247;22;20019;-69
2023/07/25 12:11:21;;;;;;;1.65;0.57;;;20.80;99.90;;;;;;6198224;22;20444;-68
2023/07/25 12:13:56;;;;;;;1.92;0.50;;;20.90;99.90;;;;;;6271863;22;20340;-69
2023/07/25 12:16:30;;;;;;;1.73;0.50;;;21.00;99.90;;;;;;6271739;22;20034;-69
2023/07/25 12:19:15;;;;;;;2.38;0.70;;;21.00;99.90;;;;;;6271314;22;20475;-69
2023/07/25 12:21:46;;;;;;;3.38;0.80;;;21.20;99.90;;;;;;6271277;22;20081;-69
2023/07/25 12:24:14;;;;;;;3.50;0.70;;;21.00;99.90;;;;;;6244132;22;20039;-69
2023/07/25 12:26:47;;;;;;;1.92;0.73;;;21.10;99.90;;;;;;6271302;22;20030;-69
2023/07/25 12:29:21;;;;;;;1.80;0.75;;;21.30;99.90;;;;;;6271221;22;20031;-69
2023/07/25 12:31:47;;;;;;;3.55;0.75;;;21.20;99.90;;;;;;6244037;22;20016;-69
2023/07/25 12:34:18;;;;;;;4.05;0.90;;;21.20;99.90;;;;;;6270661;22;20519;-69
2023/07/25 12:36:44;;;;;;;3.20;0.65;;;21.30;99.90;;;;;;6271324;22;20019;-71
2023/07/25 12:39:10;;;;;;;4.28;1.00;;;21.10;99.90;;;;;;6244089;22;20034;-71
2023/07/25 12:41:37;;;;;;;1.67;0.70;;;21.00;99.90;;;;;;6244129;22;20090;-71
2023/07/25 12:44:03;;;;;;;4.32;0.88;;;21.20;99.90;;;;;;6218771;22;20022;-71